createdAt,value
2023-03-29T00:00:24.328Z,55.48
2023-03-29T00:02:51.205Z,55.12
2023-03-29T00:05:23.153Z,55.27
2023-03-29T00:08:04.722Z,55.36
2023-03-29T00:10:33.756Z,55.50
2023-03-29T00:13:01.432Z,55.56
2023-03-29T00:15:28.036Z,55.16
2023-03-29T00:17:54.667Z,55.27
2023-03-29T00:20:21.228Z,55.14
2023-03-29T00:22:47.857Z,55.25
2023-03-29T00:25:14.457Z,55.99
2023-03-29T00:27:41.350Z,55.08
2023-03-29T00:30:10.220Z,55.29
2023-03-29T00:32:37.393Z,55.49
2023-03-29T00:35:06.209Z,55.68
2023-03-29T00:37:33.094Z,55.91
2023-03-29T00:39:59.860Z,55.80
2023-03-29T00:42:26.650Z,56.02
2023-03-29T00:45:07.539Z,55.38
2023-03-29T00:47:39.366Z,55.35
2023-03-29T00:50:18.509Z,55.86
2023-03-29T00:52:56.654Z,55.81
2023-03-29T00:55:30.060Z,55.67
2023-03-29T00:57:57.974Z,56.12
2023-03-29T01:00:31.868Z,55.79
2023-03-29T01:02:59.938Z,56.22
2023-03-29T01:05:32.478Z,56.78
2023-03-29T01:08:05.205Z,56.63
2023-03-29T01:10:38.819Z,56.65
2023-03-29T01:13:11.473Z,56.42
2023-03-29T01:15:42.097Z,57.67
2023-03-29T01:18:09.861Z,57.48
2023-03-29T01:21:10.188Z,56.90
2023-03-29T01:23:58.334Z,57.01
2023-03-29T01:26:36.412Z,57.13
2023-03-29T01:29:12.780Z,57.49
2023-03-29T01:31:50.614Z,57.22
2023-03-29T01:34:41.013Z,56.83
2023-03-29T01:37:37.585Z,57.07
2023-03-29T01:40:06.233Z,57.09
2023-03-29T01:42:51.731Z,57.37
2023-03-29T01:45:35.145Z,58.05
2023-03-29T01:48:09.193Z,57.92
2023-03-29T01:50:44.403Z,58.77
2023-03-29T01:53:19.089Z,58.53
2023-03-29T01:56:05.753Z,58.42
2023-03-29T01:58:36.480Z,57.92
2023-03-29T02:01:09.963Z,58.17
2023-03-29T02:03:42.403Z,58.90
2023-03-29T02:06:16.350Z,58.75
2023-03-29T02:08:45.093Z,59.04
2023-03-29T02:11:11.704Z,59.13
2023-03-29T02:13:38.365Z,58.24
2023-03-29T02:16:12.821Z,57.19
2023-03-29T02:18:45.223Z,57.75
2023-03-29T02:21:18.247Z,57.61
2023-03-29T02:23:49.619Z,57.97
2023-03-29T02:26:17.761Z,57.92
2023-03-29T02:28:44.396Z,57.83
2023-03-29T02:31:24.890Z,58.00
2023-03-29T02:33:57.347Z,58.78
2023-03-29T02:36:30.229Z,58.84
2023-03-29T02:39:00.701Z,58.81
2023-03-29T02:41:28.717Z,59.13
2023-03-29T02:43:57.067Z,58.01
2023-03-29T02:46:24.746Z,58.28
2023-03-29T02:48:54.128Z,58.54
2023-03-29T02:51:24.235Z,58.90
2023-03-29T02:54:07.037Z,58.76
2023-03-29T02:56:44.872Z,59.15
2023-03-29T02:59:12.540Z,59.05
2023-03-29T03:01:42.828Z,59.52
2023-03-29T03:04:10.287Z,59.41
2023-03-29T03:06:37.820Z,59.66
2023-03-29T03:09:05.977Z,59.27
2023-03-29T03:11:33.323Z,59.40
2023-03-29T03:14:00.131Z,59.75
2023-03-29T03:16:27.219Z,59.61
2023-03-29T03:18:54.881Z,59.70
2023-03-29T03:21:22.443Z,59.85
2023-03-29T03:23:52.080Z,59.31
2023-03-29T03:26:18.994Z,60.02
2023-03-29T03:28:48.480Z,60.70
2023-03-29T03:31:15.032Z,60.56
2023-03-29T03:33:41.845Z,60.12
2023-03-29T03:36:10.283Z,60.66
2023-03-29T03:38:38.360Z,60.08
2023-03-29T03:41:07.087Z,60.51
2023-03-29T03:43:34.346Z,60.99
2023-03-29T03:46:01.550Z,60.03
2023-03-29T03:48:28.517Z,60.15
2023-03-29T03:50:57.331Z,60.35
2023-03-29T03:53:25.628Z,60.35
2023-03-29T03:55:56.178Z,60.67
2023-03-29T03:58:23.173Z,60.35
2023-03-29T04:00:51.049Z,60.50
2023-03-29T04:03:18.130Z,60.09
2023-03-29T04:05:46.132Z,60.70
2023-03-29T04:08:13.845Z,60.91
2023-03-29T04:10:41.196Z,60.26
2023-03-29T04:13:07.787Z,60.14
2023-03-29T04:15:41.395Z,59.98
2023-03-29T04:18:08.701Z,59.65
2023-03-29T04:20:35.345Z,59.44
2023-03-29T04:23:02.023Z,59.36
2023-03-29T04:25:28.988Z,59.75
2023-03-29T04:27:58.560Z,59.10
2023-03-29T04:30:25.255Z,59.50
2023-03-29T04:32:52.285Z,59.02
2023-03-29T04:35:19.069Z,59.29
2023-03-29T04:37:45.650Z,59.31
2023-03-29T04:40:14.525Z,59.44
2023-03-29T04:42:47.773Z,59.47
2023-03-29T04:45:18.192Z,59.85
2023-03-29T04:47:45.791Z,59.63
2023-03-29T04:50:13.914Z,59.90
2023-03-29T04:52:45.537Z,59.67
2023-03-29T04:55:12.828Z,59.93
2023-03-29T04:57:39.350Z,60.20
2023-03-29T05:00:15.375Z,60.72
2023-03-29T05:02:45.970Z,59.80
2023-03-29T05:05:13.945Z,60.30
2023-03-29T05:07:41.048Z,60.53
2023-03-29T05:10:08.560Z,59.85
2023-03-29T05:12:35.340Z,60.67
2023-03-29T05:15:02.361Z,60.49
2023-03-29T05:17:29.052Z,60.90
2023-03-29T05:19:55.715Z,60.20
2023-03-29T05:22:23.492Z,59.59
2023-03-29T05:24:51.505Z,59.67
2023-03-29T05:27:18.494Z,59.83
2023-03-29T05:29:45.066Z,59.63
2023-03-29T05:32:13.569Z,59.87
2023-03-29T05:34:40.315Z,59.85
2023-03-29T05:37:07.275Z,59.92
2023-03-29T05:39:35.206Z,59.72
2023-03-29T05:42:04.575Z,59.26
2023-03-29T05:44:31.338Z,59.37
2023-03-29T05:46:58.026Z,59.80
2023-03-29T05:49:24.512Z,59.61
2023-03-29T05:51:53.842Z,59.48
2023-03-29T05:54:20.681Z,60.33
2023-03-29T05:56:50.330Z,60.21
2023-03-29T05:59:17.785Z,60.03
2023-03-29T06:01:47.008Z,60.67
2023-03-29T06:04:14.525Z,60.57
2023-03-29T06:06:41.898Z,60.25
2023-03-29T06:09:08.509Z,59.40
2023-03-29T06:11:35.070Z,59.31
2023-03-29T06:14:02.562Z,59.22
2023-03-29T06:16:29.142Z,59.02
2023-03-29T06:18:55.760Z,58.10
2023-03-29T06:21:22.966Z,58.29
2023-03-29T06:23:49.485Z,57.75
2023-03-29T06:26:16.431Z,56.93
2023-03-29T06:28:43.036Z,57.03
2023-03-29T06:31:10.190Z,55.81
2023-03-29T06:33:38.136Z,55.40
2023-03-29T06:36:05.112Z,54.57
2023-03-29T06:38:31.866Z,53.11
2023-03-29T06:41:07.477Z,51.34
2023-03-29T06:43:34.904Z,50.65
2023-03-29T06:46:02.101Z,50.25
2023-03-29T06:48:28.954Z,49.64
2023-03-29T06:50:55.672Z,49.45
2023-03-29T06:53:22.522Z,48.93
2023-03-29T06:55:51.938Z,48.88
2023-03-29T06:58:18.563Z,48.14
2023-03-29T07:00:45.940Z,47.27
2023-03-29T07:03:20.054Z,46.71
2023-03-29T07:05:47.651Z,46.46
2023-03-29T07:08:16.384Z,46.46
2023-03-29T07:10:47.551Z,45.67
2023-03-29T07:13:15.646Z,45.87
2023-03-29T07:15:45.415Z,45.29
2023-03-29T07:18:14.924Z,45.68
2023-03-29T07:20:42.659Z,45.64
2023-03-29T07:23:10.052Z,44.65
2023-03-29T07:25:37.451Z,44.04
2023-03-29T07:28:04.659Z,44.50
2023-03-29T07:30:32.577Z,44.09
2023-03-29T07:32:59.517Z,44.83
2023-03-29T07:35:27.013Z,44.66
2023-03-29T07:37:55.680Z,44.84
2023-03-29T07:40:23.953Z,43.91
2023-03-29T07:42:54.316Z,43.50
2023-03-29T07:45:26.535Z,43.73
2023-03-29T07:47:57.260Z,43.43
2023-03-29T07:50:24.572Z,43.38
2023-03-29T07:52:53.800Z,43.22
2023-03-29T07:55:22.202Z,43.27
2023-03-29T07:57:49.957Z,43.48
2023-03-29T08:00:17.399Z,43.48
2023-03-29T08:02:49.803Z,43.42
2023-03-29T08:05:26.179Z,43.69
2023-03-29T08:08:01.083Z,43.23
2023-03-29T08:10:28.520Z,43.45
2023-03-29T08:12:55.708Z,42.14
2023-03-29T08:15:22.978Z,42.36
2023-03-29T08:17:49.554Z,41.49
2023-03-29T08:20:16.630Z,41.86
2023-03-29T08:22:43.738Z,41.63
2023-03-29T08:25:11.651Z,40.98
2023-03-29T08:27:38.946Z,40.77
2023-03-29T08:30:08.159Z,39.88
2023-03-29T08:32:34.875Z,41.12
2023-03-29T08:35:03.915Z,39.85
2023-03-29T08:37:31.873Z,39.92
2023-03-29T08:39:58.675Z,38.44
2023-03-29T08:42:41.004Z,37.92
2023-03-29T08:45:40.283Z,38.82
2023-03-29T08:48:28.637Z,37.64
2023-03-29T08:51:00.658Z,36.60
2023-03-29T08:53:41.534Z,37.62
2023-03-29T08:56:14.356Z,38.34
2023-03-29T08:58:42.321Z,37.06
2023-03-29T09:01:11.385Z,36.15
2023-03-29T09:03:48.022Z,36.96
2023-03-29T09:06:16.580Z,36.92
2023-03-29T09:08:48.234Z,36.86
2023-03-29T09:11:20.707Z,37.20
2023-03-29T09:14:19.430Z,37.37
2023-03-29T09:16:46.626Z,37.57
2023-03-29T09:19:39.128Z,37.14
2023-03-29T09:22:24.243Z,37.45
2023-03-29T09:25:03.445Z,37.37
2023-03-29T09:27:46.006Z,38.02
2023-03-29T09:30:21.429Z,38.73
2023-03-29T09:33:15.562Z,38.35
2023-03-29T09:35:57.532Z,37.91
2023-03-29T09:38:24.209Z,37.01
2023-03-29T09:40:57.861Z,36.34
2023-03-29T09:43:39.764Z,36.89
2023-03-29T09:46:25.614Z,37.71
2023-03-29T09:48:54.727Z,36.79
2023-03-29T09:51:27.708Z,36.38
2023-03-29T09:53:57.861Z,37.01
2023-03-29T09:56:24.475Z,35.13
2023-03-29T09:58:51.358Z,35.30
2023-03-29T10:01:19.860Z,36.39
2023-03-29T10:03:52.371Z,35.43
2023-03-29T10:06:21.587Z,36.06
2023-03-29T10:08:52.863Z,35.87
2023-03-29T10:11:28.906Z,34.98
2023-03-29T10:14:00.560Z,34.36
2023-03-29T10:16:36.499Z,34.97
2023-03-29T10:19:33.028Z,34.20
2023-03-29T10:22:02.451Z,34.91
2023-03-29T10:24:29.004Z,35.05
2023-03-29T10:27:02.613Z,35.18
2023-03-29T10:29:37.197Z,35.28
2023-03-29T10:32:14.588Z,34.59
2023-03-29T10:34:41.588Z,34.33
2023-03-29T10:37:10.578Z,35.08
2023-03-29T10:39:39.404Z,35.21
2023-03-29T10:42:08.909Z,35.92
2023-03-29T10:44:37.590Z,35.43
2023-03-29T10:47:16.902Z,35.33
2023-03-29T10:49:56.475Z,35.45
2023-03-29T10:52:23.680Z,35.17
2023-03-29T10:54:52.668Z,34.65
2023-03-29T10:57:52.844Z,34.46
2023-03-29T11:00:27.017Z,35.17
2023-03-29T11:03:21.853Z,36.74
2023-03-29T11:06:04.423Z,35.74
2023-03-29T11:08:57.816Z,36.86
2023-03-29T11:11:36.792Z,35.60
2023-03-29T11:14:22.258Z,34.08
2023-03-29T11:17:07.544Z,35.48
2023-03-29T11:19:33.936Z,34.50
2023-03-29T11:22:11.574Z,33.74
2023-03-29T11:25:06.621Z,34.52
2023-03-29T11:27:41.835Z,34.23
2023-03-29T11:30:19.480Z,34.57
2023-03-29T11:40:39.339Z,35.24
2023-03-29T11:43:15.375Z,35.20
2023-03-29T11:45:49.824Z,33.49
2023-03-29T11:48:24.298Z,34.11
2023-03-29T11:51:11.340Z,34.79
2023-03-29T11:54:01.893Z,34.05
2023-03-29T11:56:47.480Z,34.28
2023-03-29T11:59:53.278Z,34.26
2023-03-29T12:02:29.331Z,34.63
2023-03-29T12:05:03.137Z,33.88
2023-03-29T12:07:37.698Z,34.30
2023-03-29T12:10:16.642Z,34.69
2023-03-29T12:12:47.679Z,34.88
2023-03-29T12:15:24.917Z,34.18
2023-03-29T12:18:32.926Z,32.78
2023-03-29T12:21:07.067Z,33.68
2023-03-29T12:23:34.119Z,33.80
2023-03-29T12:26:17.282Z,33.39
2023-03-29T12:28:56.475Z,33.47
2023-03-29T12:31:26.763Z,34.85
2023-03-29T12:33:56.091Z,34.68
2023-03-29T12:36:41.626Z,33.94
2023-03-29T12:39:21.585Z,33.29
2023-03-29T12:41:53.655Z,33.78
2023-03-29T12:44:27.333Z,33.92
2023-03-29T12:46:57.182Z,32.68
2023-03-29T12:49:32.740Z,32.83
2023-03-29T12:52:01.836Z,32.77
2023-03-29T12:54:32.380Z,33.59
2023-03-29T12:57:20.411Z,34.37
2023-03-29T12:59:49.476Z,33.49
2023-03-29T13:02:16.871Z,32.98
2023-03-29T13:04:47.086Z,34.44
2023-03-29T13:07:46.432Z,32.87
2023-03-29T13:10:36.731Z,33.80
2023-03-29T13:13:21.245Z,33.13
2023-03-29T13:15:48.138Z,33.55
2023-03-29T13:18:26.482Z,33.53
2023-03-29T13:21:14.529Z,33.11
2023-03-29T13:24:07.424Z,33.64
2023-03-29T13:27:02.233Z,33.70
2023-03-29T13:29:54.003Z,33.81
2023-03-29T13:32:43.771Z,33.07
2023-03-29T13:35:21.084Z,33.56
2023-03-29T13:38:21.842Z,33.05
2023-03-29T13:40:52.027Z,33.10
2023-03-29T13:43:21.370Z,33.66
2023-03-29T13:45:59.907Z,33.50
2023-03-29T13:48:47.345Z,34.44
2023-03-29T13:51:21.845Z,33.91
2023-03-29T13:54:06.483Z,33.54
2023-03-29T13:56:40.223Z,33.68
2023-03-29T13:59:20.049Z,33.73
2023-03-29T14:01:58.192Z,34.07
2023-03-29T14:04:28.522Z,32.95
2023-03-29T14:06:57.027Z,33.52
2023-03-29T14:09:28.655Z,33.95
2023-03-29T14:11:56.568Z,34.57
2023-03-29T14:14:26.545Z,33.85
2023-03-29T14:16:55.519Z,33.54
2023-03-29T14:19:31.125Z,32.98
2023-03-29T14:22:00.545Z,33.23
2023-03-29T14:24:34.976Z,33.95
2023-03-29T14:27:06.716Z,33.42
2023-03-29T14:29:35.023Z,33.94
2023-03-29T14:32:19.611Z,33.87
2023-03-29T14:34:50.956Z,33.46
2023-03-29T14:37:23.089Z,34.29
2023-03-29T14:39:50.661Z,33.83
2023-03-29T14:42:25.955Z,33.30
2023-03-29T14:45:05.156Z,33.90
2023-03-29T14:47:33.532Z,32.10
2023-03-29T14:50:01.805Z,32.62
2023-03-29T14:52:30.502Z,34.16
2023-03-29T14:55:00.574Z,34.22
2023-03-29T14:57:32.924Z,34.34
2023-03-29T15:00:02.038Z,34.02
2023-03-29T15:02:32.122Z,34.83
2023-03-29T15:05:00.171Z,34.00
2023-03-29T15:07:28.434Z,33.65
2023-03-29T15:09:57.351Z,34.20
2023-03-29T15:12:24.403Z,34.73
2023-03-29T15:14:52.930Z,34.62
2023-03-29T15:17:50.922Z,33.91
2023-03-29T15:20:26.106Z,33.85
2023-03-29T15:22:57.803Z,33.55
2023-03-29T15:25:28.348Z,33.43
2023-03-29T15:28:01.869Z,33.91
2023-03-29T15:30:34.545Z,33.68
2023-03-29T15:33:22.076Z,33.80
2023-03-29T15:35:53.797Z,34.29
2023-03-29T15:38:27.491Z,33.95
2023-03-29T15:41:01.386Z,34.01
2023-03-29T15:43:28.401Z,34.20
2023-03-29T15:45:55.060Z,34.50
2023-03-29T15:48:25.784Z,34.14
2023-03-29T15:50:53.237Z,33.85
2023-03-29T15:53:23.785Z,34.23
2023-03-29T15:55:53.188Z,33.68
2023-03-29T15:58:27.843Z,34.69
2023-03-29T16:00:59.329Z,35.00
2023-03-29T16:03:27.455Z,34.97
2023-03-29T16:05:57.992Z,35.14
2023-03-29T16:08:25.361Z,35.37
2023-03-29T16:10:52.221Z,35.57
2023-03-29T16:13:19.028Z,35.45
2023-03-29T16:15:46.067Z,35.43
2023-03-29T16:18:12.699Z,35.13
2023-03-29T16:20:39.749Z,35.09
2023-03-29T16:23:11.518Z,35.00
2023-03-29T16:25:40.187Z,35.60
2023-03-29T16:28:08.578Z,34.62
2023-03-29T16:30:37.488Z,34.53
2023-03-29T16:33:08.363Z,35.06
2023-03-29T16:35:40.152Z,35.38
2023-03-29T16:38:07.921Z,36.00
2023-03-29T16:40:35.055Z,35.99
2023-03-29T16:43:02.780Z,36.38
2023-03-29T16:45:29.684Z,36.29
2023-03-29T16:47:57.052Z,36.18
2023-03-29T16:50:23.894Z,36.37
2023-03-29T16:52:53.850Z,36.42
2023-03-29T16:55:20.646Z,36.65
2023-03-29T16:57:48.957Z,35.86
2023-03-29T17:00:19.614Z,36.39
2023-03-29T17:02:49.814Z,36.40
2023-03-29T17:05:17.914Z,37.13
2023-03-29T17:07:45.078Z,37.31
2023-03-29T17:10:12.606Z,36.91
2023-03-29T17:12:39.530Z,36.82
2023-03-29T17:15:07.806Z,37.16
2023-03-29T17:17:35.154Z,36.49
2023-03-29T17:20:02.040Z,36.84
2023-03-29T17:22:28.773Z,37.43
2023-03-29T17:24:55.477Z,37.77
2023-03-29T17:27:22.113Z,37.67
2023-03-29T17:29:48.858Z,37.70
2023-03-29T17:32:15.716Z,37.62
2023-03-29T17:34:42.409Z,37.17
2023-03-29T17:37:09.768Z,36.99
2023-03-29T17:39:37.861Z,36.56
2023-03-29T17:42:05.684Z,37.31
2023-03-29T17:44:33.470Z,37.09
2023-03-29T17:47:01.136Z,37.20
2023-03-29T17:49:28.212Z,37.00
2023-03-29T17:51:54.998Z,37.55
2023-03-29T17:54:21.640Z,37.93
2023-03-29T17:56:48.983Z,37.55
2023-03-29T17:59:16.010Z,37.77
2023-03-29T18:01:43.427Z,38.07
2023-03-29T18:04:10.199Z,38.22
2023-03-29T18:06:36.949Z,38.60
2023-03-29T18:09:04.469Z,38.91
2023-03-29T18:11:31.784Z,39.12
2023-03-29T18:13:59.762Z,39.66
2023-03-29T18:16:28.948Z,40.68
2023-03-29T18:18:55.862Z,40.83
2023-03-29T18:21:22.744Z,41.31
2023-03-29T18:23:53.818Z,41.33
2023-03-29T18:26:22.902Z,41.69
2023-03-29T18:28:50.741Z,41.76
2023-03-29T18:31:17.422Z,41.65
2023-03-29T18:33:44.080Z,43.02
2023-03-29T18:36:13.216Z,43.10
2023-03-29T18:38:40.749Z,42.30
2023-03-29T18:41:08.677Z,42.75
2023-03-29T18:43:36.030Z,43.14
2023-03-29T18:46:06.201Z,43.56
2023-03-29T18:48:38.947Z,44.06
2023-03-29T18:51:07.549Z,43.98
2023-03-29T18:53:38.780Z,44.42
2023-03-29T18:56:06.650Z,45.00
2023-03-29T18:58:33.892Z,45.17
2023-03-29T19:01:02.956Z,45.49
2023-03-29T19:03:30.562Z,45.89
2023-03-29T19:05:57.357Z,45.98
2023-03-29T19:08:26.391Z,46.25
2023-03-29T19:11:00.517Z,46.82
2023-03-29T19:13:27.318Z,46.27
2023-03-29T19:15:53.997Z,47.11
2023-03-29T19:18:21.123Z,47.16
2023-03-29T19:20:54.305Z,47.38
2023-03-29T19:23:28.454Z,48.08
2023-03-29T19:26:00.665Z,47.21
2023-03-29T19:28:27.858Z,47.76
2023-03-29T19:30:55.976Z,47.54
2023-03-29T19:33:22.686Z,47.80
2023-03-29T19:35:52.701Z,47.79
2023-03-29T19:38:20.284Z,48.30
2023-03-29T19:40:48.762Z,49.03
2023-03-29T19:43:16.904Z,48.46
2023-03-29T19:45:48.936Z,49.01
2023-03-29T19:48:22.488Z,49.11
2023-03-29T19:50:50.634Z,48.97
2023-03-29T19:53:17.425Z,49.04
2023-03-29T19:55:45.406Z,49.71
2023-03-29T19:58:12.765Z,50.00
2023-03-29T20:00:39.630Z,49.78
2023-03-29T20:03:10.404Z,50.43
2023-03-29T20:05:40.276Z,49.81
2023-03-29T20:08:07.493Z,49.85
2023-03-29T20:10:34.751Z,49.80
2023-03-29T20:13:01.969Z,49.61
2023-03-29T20:15:28.752Z,49.05
2023-03-29T20:17:59.433Z,49.41
2023-03-29T20:20:27.437Z,49.19
2023-03-29T20:22:58.560Z,48.75
2023-03-29T20:25:25.997Z,48.51
2023-03-29T20:27:53.373Z,48.65
2023-03-29T20:30:20.370Z,48.68
2023-03-29T20:32:47.356Z,48.82
2023-03-29T20:35:14.162Z,48.18
2023-03-29T20:37:41.185Z,49.61
2023-03-29T20:40:08.711Z,49.73
2023-03-29T20:42:38.290Z,49.91
2023-03-29T20:45:05.792Z,49.71
2023-03-29T20:47:32.446Z,49.98
2023-03-29T20:50:03.515Z,49.98
2023-03-29T20:52:30.764Z,50.57
2023-03-29T20:54:57.467Z,50.70
2023-03-29T20:57:24.595Z,50.85
2023-03-29T20:59:51.312Z,51.15
2023-03-29T21:02:22.969Z,51.09
2023-03-29T21:04:53.974Z,51.11
2023-03-29T21:07:23.958Z,51.28
2023-03-29T21:09:50.660Z,51.91
2023-03-29T21:12:20.205Z,52.23
2023-03-29T21:14:47.561Z,52.27
2023-03-29T21:17:14.237Z,53.22
2023-03-29T21:19:41.472Z,52.95
2023-03-29T21:22:09.844Z,53.35
2023-03-29T21:24:36.658Z,53.47
2023-03-29T21:27:03.415Z,54.18
2023-03-29T21:29:30.102Z,53.81
2023-03-29T21:31:57.159Z,54.59
2023-03-29T21:34:25.200Z,54.55
2023-03-29T21:36:51.829Z,54.84
2023-03-29T21:39:18.458Z,55.37
2023-03-29T21:41:45.061Z,55.04
2023-03-29T21:44:11.803Z,55.08
2023-03-29T21:46:38.629Z,55.59
2023-03-29T21:49:05.603Z,55.42
2023-03-29T21:51:32.816Z,53.86
2023-03-29T21:53:59.536Z,52.55
2023-03-29T21:56:26.456Z,52.33
2023-03-29T21:58:53.124Z,51.85
2023-03-29T22:01:19.765Z,51.64
2023-03-29T22:03:46.767Z,52.26
2023-03-29T22:06:14.505Z,51.73
2023-03-29T22:08:41.161Z,51.58
2023-03-29T22:11:11.091Z,51.76
2023-03-29T22:13:37.916Z,52.02
2023-03-29T22:16:05.621Z,52.13
2023-03-29T22:18:44.585Z,52.80
2023-03-29T22:21:14.547Z,52.01
2023-03-29T22:23:53.679Z,52.16
2023-03-29T22:26:23.395Z,52.48
2023-03-29T22:28:52.958Z,52.70
2023-03-29T22:31:21.922Z,52.70
2023-03-29T22:33:49.053Z,53.11
2023-03-29T22:36:17.316Z,53.41
2023-03-29T22:38:45.451Z,54.21
2023-03-29T22:41:13.159Z,54.84
2023-03-29T22:43:39.866Z,55.43
2023-03-29T22:46:09.357Z,55.11
2023-03-29T22:48:36.275Z,55.44
2023-03-29T22:51:03.611Z,55.37
2023-03-29T22:53:30.606Z,55.38
2023-03-29T22:55:57.304Z,56.00
2023-03-29T22:58:24.212Z,56.28
2023-03-29T23:00:51.617Z,56.10
2023-03-29T23:03:18.340Z,56.03
2023-03-29T23:05:52.657Z,56.36
2023-03-29T23:08:19.544Z,56.14
2023-03-29T23:10:47.126Z,57.11
2023-03-29T23:13:15.744Z,56.81
2023-03-29T23:15:45.776Z,56.85
2023-03-29T23:18:13.173Z,57.15
2023-03-29T23:20:40.830Z,57.53
2023-03-29T23:23:07.761Z,57.45
2023-03-29T23:25:35.339Z,56.86
2023-03-29T23:28:02.727Z,57.43
2023-03-29T23:30:32.437Z,57.49
2023-03-29T23:33:00.292Z,57.36
2023-03-29T23:35:27.061Z,57.63
2023-03-29T23:37:55.992Z,57.74
2023-03-29T23:40:22.687Z,57.71
2023-03-29T23:42:49.276Z,57.54
2023-03-29T23:45:20.851Z,57.81
2023-03-29T23:47:47.576Z,57.75
2023-03-29T23:50:18.193Z,57.55
2023-03-29T23:52:46.719Z,58.21
2023-03-29T23:55:14.695Z,57.78
2023-03-29T23:57:41.732Z,57.96
